sensor_id;sensor_type;location;lat;lon;timestamp;P1;durP1;ratioP1;P2;durP2;ratioP2
20090;SDS011;10205;49.678;6.560;2023-08-21T00:02:13;4.13;;;1.90;;
20090;SDS011;10205;49.678;6.560;2023-08-21T00:04:40;2.70;;;1.42;;
20090;SDS011;10205;49.678;6.560;2023-08-21T00:07:08;2.03;;;1.50;;
20090;SDS011;10205;49.678;6.560;2023-08-21T00:09:38;1.77;;;1.58;;
20090;SDS011;10205;49.678;6.560;2023-08-21T00:12:06;2.70;;;1.63;;
20090;SDS011;10205;49.678;6.560;2023-08-21T00:14:34;3.47;;;1.60;;
20090;SDS011;10205;49.678;6.560;2023-08-21T00:17:01;2.95;;;1.55;;
20090;SDS011;10205;49.678;6.560;2023-08-21T00:19:29;1.58;;;1.17;;
20090;SDS011;10205;49.678;6.560;2023-08-21T00:21:57;2.20;;;1.40;;
20090;SDS011;10205;49.678;6.560;2023-08-21T00:24:26;4.05;;;1.30;;
20090;SDS011;10205;49.678;6.560;2023-08-21T00:26:55;1.83;;;1.40;;
20090;SDS011;10205;49.678;6.560;2023-08-21T00:29:22;2.22;;;1.60;;
20090;SDS011;10205;49.678;6.560;2023-08-21T00:31:50;1.40;;;1.30;;
20090;SDS011;10205;49.678;6.560;2023-08-21T00:34:17;1.48;;;1.20;;
20090;SDS011;10205;49.678;6.560;2023-08-21T00:36:45;2.50;;;1.35;;
20090;SDS011;10205;49.678;6.560;2023-08-21T00:39:12;1.85;;;1.60;;
20090;SDS011;10205;49.678;6.560;2023-08-21T00:41:40;2.42;;;1.30;;
20090;SDS011;10205;49.678;6.560;2023-08-21T00:44:10;1.40;;;1.30;;
20090;SDS011;10205;49.678;6.560;2023-08-21T00:46:37;1.40;;;1.30;;
20090;SDS011;10205;49.678;6.560;2023-08-21T00:49:05;1.80;;;1.60;;
20090;SDS011;10205;49.678;6.560;2023-08-21T00:51:33;1.45;;;1.33;;
20090;SDS011;10205;49.678;6.560;2023-08-21T00:54:01;1.95;;;1.45;;
20090;SDS011;10205;49.678;6.560;2023-08-21T00:56:29;2.65;;;1.58;;
20090;SDS011;10205;49.678;6.560;2023-08-21T00:58:56;1.58;;;1.48;;
20090;SDS011;10205;49.678;6.560;2023-08-21T01:01:25;1.42;;;1.20;;
20090;SDS011;10205;49.678;6.560;2023-08-21T01:03:54;4.25;;;1.48;;
20090;SDS011;10205;49.678;6.560;2023-08-21T01:06:22;1.88;;;1.40;;
20090;SDS011;10205;49.678;6.560;2023-08-21T01:08:55;1.73;;;1.27;;
20090;SDS011;10205;49.678;6.560;2023-08-21T01:11:33;1.30;;;1.20;;
20090;SDS011;10205;49.678;6.560;2023-08-21T01:14:11;2.30;;;1.50;;
20090;SDS011;10205;49.678;6.560;2023-08-21T01:16:55;1.63;;;1.45;;
20090;SDS011;10205;49.678;6.560;2023-08-21T01:19:26;1.40;;;1.30;;
20090;SDS011;10205;49.678;6.560;2023-08-21T01:22:02;3.28;;;1.50;;
20090;SDS011;10205;49.678;6.560;2023-08-21T01:24:31;1.42;;;1.27;;
20090;SDS011;10205;49.678;6.560;2023-08-21T01:26:59;1.60;;;1.38;;
20090;SDS011;10205;49.678;6.560;2023-08-21T01:29:28;1.55;;;1.25;;
20090;SDS011;10205;49.678;6.560;2023-08-21T01:31:58;1.65;;;1.42;;
20090;SDS011;10205;49.678;6.560;2023-08-21T01:34:34;1.60;;;1.50;;
20090;SDS011;10205;49.678;6.560;2023-08-21T01:37:03;2.55;;;1.65;;
20090;SDS011;10205;49.678;6.560;2023-08-21T01:39:34;1.50;;;1.40;;
20090;SDS011;10205;49.678;6.560;2023-08-21T01:42:02;2.15;;;1.20;;
20090;SDS011;10205;49.678;6.560;2023-08-21T01:44:29;1.48;;;1.27;;
20090;SDS011;10205;49.678;6.560;2023-08-21T01:46:57;1.40;;;1.30;;
20090;SDS011;10205;49.678;6.560;2023-08-21T01:49:24;1.92;;;1.25;;
20090;SDS011;10205;49.678;6.560;2023-08-21T01:51:52;1.52;;;1.10;;
20090;SDS011;10205;49.678;6.560;2023-08-21T01:54:19;1.92;;;1.27;;
20090;SDS011;10205;49.678;6.560;2023-08-21T01:56:48;1.65;;;1.33;;
20090;SDS011;10205;49.678;6.560;2023-08-21T01:59:16;2.20;;;1.40;;
20090;SDS011;10205;49.678;6.560;2023-08-21T02:01:43;1.52;;;1.40;;
20090;SDS011;10205;49.678;6.560;2023-08-21T02:04:11;2.80;;;1.33;;
20090;SDS011;10205;49.678;6.560;2023-08-21T02:06:39;4.20;;;1.23;;
20090;SDS011;10205;49.678;6.560;2023-08-21T02:09:06;1.23;;;1.10;;
20090;SDS011;10205;49.678;6.560;2023-08-21T02:11:33;2.85;;;1.38;;
20090;SDS011;10205;49.678;6.560;2023-08-21T02:14:02;1.88;;;1.42;;
20090;SDS011;10205;49.678;6.560;2023-08-21T02:16:30;1.60;;;1.33;;
20090;SDS011;10205;49.678;6.560;2023-08-21T02:18:59;1.67;;;1.30;;
20090;SDS011;10205;49.678;6.560;2023-08-21T02:21:26;1.38;;;1.27;;
20090;SDS011;10205;49.678;6.560;2023-08-21T02:23:54;1.95;;;1.48;;
20090;SDS011;10205;49.678;6.560;2023-08-21T02:26:22;2.67;;;1.20;;
20090;SDS011;10205;49.678;6.560;2023-08-21T02:28:49;2.17;;;1.20;;
20090;SDS011;10205;49.678;6.560;2023-08-21T02:31:18;1.45;;;1.10;;
20090;SDS011;10205;49.678;6.560;2023-08-21T02:33:45;3.00;;;1.10;;
20090;SDS011;10205;49.678;6.560;2023-08-21T02:36:15;1.45;;;1.20;;
20090;SDS011;10205;49.678;6.560;2023-08-21T02:38:42;1.77;;;1.23;;
20090;SDS011;10205;49.678;6.560;2023-08-21T02:41:10;2.00;;;1.10;;
20090;SDS011;10205;49.678;6.560;2023-08-21T02:43:38;2.13;;;1.20;;
20090;SDS011;10205;49.678;6.560;2023-08-21T02:46:05;1.23;;;1.13;;
20090;SDS011;10205;49.678;6.560;2023-08-21T02:48:35;1.77;;;1.35;;
20090;SDS011;10205;49.678;6.560;2023-08-21T02:51:02;2.28;;;1.30;;
20090;SDS011;10205;49.678;6.560;2023-08-21T02:53:30;1.70;;;1.40;;
20090;SDS011;10205;49.678;6.560;2023-08-21T02:55:57;2.42;;;1.30;;
20090;SDS011;10205;49.678;6.560;2023-08-21T02:58:25;2.30;;;1.40;;
20090;SDS011;10205;49.678;6.560;2023-08-21T03:00:53;1.90;;;1.15;;
20090;SDS011;10205;49.678;6.560;2023-08-21T03:03:20;1.92;;;1.50;;
20090;SDS011;10205;49.678;6.560;2023-08-21T03:05:50;1.50;;;1.27;;
20090;SDS011;10205;49.678;6.560;2023-08-21T03:08:17;1.65;;;1.30;;
20090;SDS011;10205;49.678;6.560;2023-08-21T03:10:45;1.30;;;1.20;;
20090;SDS011;10205;49.678;6.560;2023-08-21T03:13:12;1.50;;;1.33;;
20090;SDS011;10205;49.678;6.560;2023-08-21T03:15:40;2.70;;;1.80;;
20090;SDS011;10205;49.678;6.560;2023-08-21T03:18:08;1.50;;;1.20;;
20090;SDS011;10205;49.678;6.560;2023-08-21T03:20:35;1.58;;;1.48;;
20090;SDS011;10205;49.678;6.560;2023-08-21T03:23:04;2.78;;;1.50;;
20090;SDS011;10205;49.678;6.560;2023-08-21T03:25:31;1.45;;;1.35;;
20090;SDS011;10205;49.678;6.560;2023-08-21T03:27:59;1.20;;;1.05;;
20090;SDS011;10205;49.678;6.560;2023-08-21T03:30:26;1.58;;;1.40;;
20090;SDS011;10205;49.678;6.560;2023-08-21T03:32:54;2.38;;;1.63;;
20090;SDS011;10205;49.678;6.560;2023-08-21T03:35:21;1.60;;;1.50;;
20090;SDS011;10205;49.678;6.560;2023-08-21T03:37:48;2.85;;;1.38;;
20090;SDS011;10205;49.678;6.560;2023-08-21T03:40:18;1.30;;;1.20;;
20090;SDS011;10205;49.678;6.560;2023-08-21T03:42:45;2.33;;;1.45;;
20090;SDS011;10205;49.678;6.560;2023-08-21T03:45:12;1.58;;;1.48;;
20090;SDS011;10205;49.678;6.560;2023-08-21T03:47:40;1.25;;;1.00;;
20090;SDS011;10205;49.678;6.560;2023-08-21T03:50:07;9.63;;;1.70;;
20090;SDS011;10205;49.678;6.560;2023-08-21T03:52:36;1.20;;;1.10;;
20090;SDS011;10205;49.678;6.560;2023-08-21T03:55:03;1.25;;;1.15;;
20090;SDS011;10205;49.678;6.560;2023-08-21T03:57:33;1.75;;;1.38;;
20090;SDS011;10205;49.678;6.560;2023-08-21T04:00:00;2.85;;;1.30;;
20090;SDS011;10205;49.678;6.560;2023-08-21T04:02:29;1.52;;;1.30;;
20090;SDS011;10205;49.678;6.560;2023-08-21T04:04:56;2.53;;;1.45;;
20090;SDS011;10205;49.678;6.560;2023-08-21T04:07:24;1.77;;;1.40;;
20090;SDS011;10205;49.678;6.560;2023-08-21T04:09:51;2.65;;;1.63;;
20090;SDS011;10205;49.678;6.560;2023-08-21T04:12:19;1.33;;;1.20;;
20090;SDS011;10205;49.678;6.560;2023-08-21T04:14:47;1.40;;;1.30;;
20090;SDS011;10205;49.678;6.560;2023-08-21T04:17:19;5.57;;;1.40;;
20090;SDS011;10205;49.678;6.560;2023-08-21T04:19:48;2.03;;;1.30;;
20090;SDS011;10205;49.678;6.560;2023-08-21T04:22:15;4.22;;;1.30;;
20090;SDS011;10205;49.678;6.560;2023-08-21T04:24:44;1.65;;;1.38;;
20090;SDS011;10205;49.678;6.560;2023-08-21T04:27:11;2.30;;;1.30;;
20090;SDS011;10205;49.678;6.560;2023-08-21T04:29:38;1.75;;;1.33;;
20090;SDS011;10205;49.678;6.560;2023-08-21T04:32:08;2.13;;;1.05;;
20090;SDS011;10205;49.678;6.560;2023-08-21T04:34:35;2.00;;;1.63;;
20090;SDS011;10205;49.678;6.560;2023-08-21T04:37:03;1.73;;;1.27;;
20090;SDS011;10205;49.678;6.560;2023-08-21T04:39:30;1.10;;;1.00;;
20090;SDS011;10205;49.678;6.560;2023-08-21T04:41:58;1.42;;;1.33;;
20090;SDS011;10205;49.678;6.560;2023-08-21T04:44:25;1.52;;;1.35;;
20090;SDS011;10205;49.678;6.560;2023-08-21T04:46:53;1.85;;;1.15;;
20090;SDS011;10205;49.678;6.560;2023-08-21T04:49:22;2.03;;;1.30;;
20090;SDS011;10205;49.678;6.560;2023-08-21T04:51:49;1.80;;;1.20;;
20090;SDS011;10205;49.678;6.560;2023-08-21T04:54:17;1.20;;;1.10;;
20090;SDS011;10205;49.678;6.560;2023-08-21T04:56:44;1.30;;;1.20;;
20090;SDS011;10205;49.678;6.560;2023-08-21T04:59:12;1.65;;;1.20;;
20090;SDS011;10205;49.678;6.560;2023-08-21T05:01:39;3.05;;;1.10;;
20090;SDS011;10205;49.678;6.560;2023-08-21T05:04:06;1.38;;;1.27;;
20090;SDS011;10205;49.678;6.560;2023-08-21T05:06:35;1.92;;;1.20;;
20090;SDS011;10205;49.678;6.560;2023-08-21T05:09:03;2.50;;;1.35;;
20090;SDS011;10205;49.678;6.560;2023-08-21T05:11:30;1.67;;;1.55;;
20090;SDS011;10205;49.678;6.560;2023-08-21T05:13:58;3.25;;;1.20;;
20090;SDS011;10205;49.678;6.560;2023-08-21T05:16:25;1.25;;;1.15;;
20090;SDS011;10205;49.678;6.560;2023-08-21T05:18:52;3.03;;;1.40;;
20090;SDS011;10205;49.678;6.560;2023-08-21T05:21:20;2.22;;;1.42;;
20090;SDS011;10205;49.678;6.560;2023-08-21T05:23:49;2.00;;;1.30;;
20090;SDS011;10205;49.678;6.560;2023-08-21T05:26:16;1.50;;;1.33;;
20090;SDS011;10205;49.678;6.560;2023-08-21T05:28:44;1.67;;;1.05;;
20090;SDS011;10205;49.678;6.560;2023-08-21T05:31:11;1.50;;;1.40;;
20090;SDS011;10205;49.678;6.560;2023-08-21T05:33:39;1.30;;;1.10;;
20090;SDS011;10205;49.678;6.560;2023-08-21T05:36:06;1.58;;;1.25;;
20090;SDS011;10205;49.678;6.560;2023-08-21T05:38:33;1.20;;;1.10;;
20090;SDS011;10205;49.678;6.560;2023-08-21T05:41:02;1.85;;;1.30;;
20090;SDS011;10205;49.678;6.560;2023-08-21T05:43:30;1.30;;;1.13;;
20090;SDS011;10205;49.678;6.560;2023-08-21T05:45:57;1.10;;;1.00;;
20090;SDS011;10205;49.678;6.560;2023-08-21T05:48:24;2.65;;;1.30;;
20090;SDS011;10205;49.678;6.560;2023-08-21T05:50:52;1.77;;;1.50;;
20090;SDS011;10205;49.678;6.560;2023-08-21T05:53:20;1.35;;;1.25;;
20090;SDS011;10205;49.678;6.560;2023-08-21T05:55:47;1.65;;;1.55;;
20090;SDS011;10205;49.678;6.560;2023-08-21T05:58:16;1.20;;;1.10;;
20090;SDS011;10205;49.678;6.560;2023-08-21T06:00:44;1.50;;;1.13;;
20090;SDS011;10205;49.678;6.560;2023-08-21T06:03:13;1.95;;;1.38;;
20090;SDS011;10205;49.678;6.560;2023-08-21T06:05:41;1.10;;;1.00;;
20090;SDS011;10205;49.678;6.560;2023-08-21T06:08:09;2.45;;;1.30;;
20090;SDS011;10205;49.678;6.560;2023-08-21T06:10:36;1.30;;;1.20;;
20090;SDS011;10205;49.678;6.560;2023-08-21T06:13:04;1.77;;;1.30;;
20090;SDS011;10205;49.678;6.560;2023-08-21T06:15:33;2.15;;;1.20;;
20090;SDS011;10205;49.678;6.560;2023-08-21T06:18:01;1.85;;;1.15;;
20090;SDS011;10205;49.678;6.560;2023-08-21T06:20:29;1.92;;;1.30;;
20090;SDS011;10205;49.678;6.560;2023-08-21T06:22:57;1.30;;;1.20;;
20090;SDS011;10205;49.678;6.560;2023-08-21T06:25:24;1.75;;;1.20;;
20090;SDS011;10205;49.678;6.560;2023-08-21T06:27:52;2.85;;;1.40;;
20090;SDS011;10205;49.678;6.560;2023-08-21T06:30:19;2.15;;;1.60;;
20090;SDS011;10205;49.678;6.560;2023-08-21T06:32:48;2.13;;;1.55;;
20090;SDS011;10205;49.678;6.560;2023-08-21T06:35:17;2.42;;;1.83;;
20090;SDS011;10205;49.678;6.560;2023-08-21T06:37:44;1.25;;;1.10;;
20090;SDS011;10205;49.678;6.560;2023-08-21T06:40:12;1.63;;;1.50;;
20090;SDS011;10205;49.678;6.560;2023-08-21T06:42:40;1.25;;;1.15;;
20090;SDS011;10205;49.678;6.560;2023-08-21T06:45:08;2.00;;;1.30;;
20090;SDS011;10205;49.678;6.560;2023-08-21T06:47:36;2.45;;;1.40;;
20090;SDS011;10205;49.678;6.560;2023-08-21T06:50:07;2.38;;;1.38;;
20090;SDS011;10205;49.678;6.560;2023-08-21T06:52:35;2.38;;;1.35;;
20090;SDS011;10205;49.678;6.560;2023-08-21T06:55:02;1.92;;;1.38;;
20090;SDS011;10205;49.678;6.560;2023-08-21T06:57:31;2.60;;;1.90;;
20090;SDS011;10205;49.678;6.560;2023-08-21T06:59:58;1.45;;;1.33;;
20090;SDS011;10205;49.678;6.560;2023-08-21T07:02:25;1.95;;;1.40;;
20090;SDS011;10205;49.678;6.560;2023-08-21T07:04:53;2.05;;;1.63;;
20090;SDS011;10205;49.678;6.560;2023-08-21T07:07:22;3.55;;;1.30;;
20090;SDS011;10205;49.678;6.560;2023-08-21T07:09:50;2.20;;;1.33;;
20090;SDS011;10205;49.678;6.560;2023-08-21T07:12:17;1.70;;;1.50;;
20090;SDS011;10205;49.678;6.560;2023-08-21T07:14:44;2.30;;;1.35;;
20090;SDS011;10205;49.678;6.560;2023-08-21T07:17:12;2.03;;;1.83;;
20090;SDS011;10205;49.678;6.560;2023-08-21T07:19:40;2.15;;;1.95;;
20090;SDS011;10205;49.678;6.560;2023-08-21T07:22:07;1.92;;;1.50;;
20090;SDS011;10205;49.678;6.560;2023-08-21T07:24:36;2.17;;;1.67;;
20090;SDS011;10205;49.678;6.560;2023-08-21T07:27:04;1.80;;;1.60;;
20090;SDS011;10205;49.678;6.560;2023-08-21T07:29:31;3.17;;;1.95;;
20090;SDS011;10205;49.678;6.560;2023-08-21T07:31:59;1.73;;;1.58;;
20090;SDS011;10205;49.678;6.560;2023-08-21T07:34:28;1.73;;;1.48;;
20090;SDS011;10205;49.678;6.560;2023-08-21T07:36:56;2.17;;;1.83;;
20090;SDS011;10205;49.678;6.560;2023-08-21T07:39:25;3.00;;;1.60;;
20090;SDS011;10205;49.678;6.560;2023-08-21T07:41:54;1.92;;;1.50;;
20090;SDS011;10205;49.678;6.560;2023-08-21T07:44:21;2.25;;;1.83;;
20090;SDS011;10205;49.678;6.560;2023-08-21T07:46:49;1.70;;;1.50;;
20090;SDS011;10205;49.678;6.560;2023-08-21T07:49:17;2.22;;;1.90;;
20090;SDS011;10205;49.678;6.560;2023-08-21T07:51:45;2.55;;;1.98;;
20090;SDS011;10205;49.678;6.560;2023-08-21T07:54:12;2.42;;;2.05;;
20090;SDS011;10205;49.678;6.560;2023-08-21T07:56:40;3.00;;;2.47;;
20090;SDS011;10205;49.678;6.560;2023-08-21T07:59:09;8.65;;;2.33;;
20090;SDS011;10205;49.678;6.560;2023-08-21T08:01:36;1.92;;;1.70;;
20090;SDS011;10205;49.678;6.560;2023-08-21T08:04:03;2.13;;;1.88;;
20090;SDS011;10205;49.678;6.560;2023-08-21T08:06:31;2.03;;;1.90;;
20090;SDS011;10205;49.678;6.560;2023-08-21T08:08:59;3.28;;;2.10;;
20090;SDS011;10205;49.678;6.560;2023-08-21T08:11:26;4.88;;;2.53;;
20090;SDS011;10205;49.678;6.560;2023-08-21T08:13:54;3.65;;;2.17;;
20090;SDS011;10205;49.678;6.560;2023-08-21T08:16:23;3.17;;;2.10;;
20090;SDS011;10205;49.678;6.560;2023-08-21T08:18:50;2.22;;;2.10;;
20090;SDS011;10205;49.678;6.560;2023-08-21T08:21:18;2.50;;;2.25;;
20090;SDS011;10205;49.678;6.560;2023-08-21T08:23:45;2.35;;;1.90;;
20090;SDS011;10205;49.678;6.560;2023-08-21T08:26:12;2.67;;;2.20;;
20090;SDS011;10205;49.678;6.560;2023-08-21T08:28:40;3.22;;;2.10;;
20090;SDS011;10205;49.678;6.560;2023-08-21T08:31:13;2.33;;;2.13;;
20090;SDS011;10205;49.678;6.560;2023-08-21T08:33:43;3.75;;;2.05;;
20090;SDS011;10205;49.678;6.560;2023-08-21T08:36:11;2.45;;;2.22;;
20090;SDS011;10205;49.678;6.560;2023-08-21T08:38:38;2.10;;;1.90;;
20090;SDS011;10205;49.678;6.560;2023-08-21T08:41:07;2.83;;;2.22;;
20090;SDS011;10205;49.678;6.560;2023-08-21T08:43:43;2.53;;;2.00;;
20090;SDS011;10205;49.678;6.560;2023-08-21T08:46:12;2.97;;;2.00;;
20090;SDS011;10205;49.678;6.560;2023-08-21T08:48:39;2.97;;;2.10;;
20090;SDS011;10205;49.678;6.560;2023-08-21T08:51:10;4.30;;;3.00;;
20090;SDS011;10205;49.678;6.560;2023-08-21T08:53:38;2.83;;;2.60;;
20090;SDS011;10205;49.678;6.560;2023-08-21T08:56:12;4.80;;;3.03;;
20090;SDS011;10205;49.678;6.560;2023-08-21T08:58:39;2.70;;;2.50;;
20090;SDS011;10205;49.678;6.560;2023-08-21T09:01:08;2.75;;;2.47;;
20090;SDS011;10205;49.678;6.560;2023-08-21T09:03:37;2.50;;;1.90;;
20090;SDS011;10205;49.678;6.560;2023-08-21T09:06:04;2.58;;;2.17;;
20090;SDS011;10205;49.678;6.560;2023-08-21T09:08:33;3.45;;;2.10;;
20090;SDS011;10205;49.678;6.560;2023-08-21T09:11:01;2.63;;;2.42;;
20090;SDS011;10205;49.678;6.560;2023-08-21T09:13:29;3.42;;;2.38;;
20090;SDS011;10205;49.678;6.560;2023-08-21T09:15:58;4.40;;;2.28;;
20090;SDS011;10205;49.678;6.560;2023-08-21T09:18:26;3.95;;;2.38;;
20090;SDS011;10205;49.678;6.560;2023-08-21T09:20:55;3.08;;;2.15;;
20090;SDS011;10205;49.678;6.560;2023-08-21T09:23:22;2.40;;;2.03;;
20090;SDS011;10205;49.678;6.560;2023-08-21T09:25:52;2.50;;;2.30;;
20090;SDS011;10205;49.678;6.560;2023-08-21T09:28:20;3.63;;;2.50;;
20090;SDS011;10205;49.678;6.560;2023-08-21T09:30:50;2.60;;;2.40;;
20090;SDS011;10205;49.678;6.560;2023-08-21T09:33:20;2.95;;;2.55;;
20090;SDS011;10205;49.678;6.560;2023-08-21T09:35:49;3.33;;;2.13;;
20090;SDS011;10205;49.678;6.560;2023-08-21T09:38:19;2.80;;;2.42;;
20090;SDS011;10205;49.678;6.560;2023-08-21T09:40:50;3.13;;;2.55;;
20090;SDS011;10205;49.678;6.560;2023-08-21T09:43:20;4.15;;;2.85;;
20090;SDS011;10205;49.678;6.560;2023-08-21T09:45:51;2.72;;;2.30;;
20090;SDS011;10205;49.678;6.560;2023-08-21T09:48:21;2.70;;;2.50;;
20090;SDS011;10205;49.678;6.560;2023-08-21T09:50:50;2.90;;;2.60;;
20090;SDS011;10205;49.678;6.560;2023-08-21T09:53:18;3.08;;;2.50;;
20090;SDS011;10205;49.678;6.560;2023-08-21T09:55:48;5.00;;;2.55;;
20090;SDS011;10205;49.678;6.560;2023-08-21T09:58:21;4.15;;;2.40;;
20090;SDS011;10205;49.678;6.560;2023-08-21T10:00:49;2.50;;;2.30;;
20090;SDS011;10205;49.678;6.560;2023-08-21T10:03:22;4.38;;;2.63;;
20090;SDS011;10205;49.678;6.560;2023-08-21T10:05:51;4.15;;;2.72;;
20090;SDS011;10205;49.678;6.560;2023-08-21T10:08:24;4.05;;;2.58;;
20090;SDS011;10205;49.678;6.560;2023-08-21T10:10:55;2.95;;;2.65;;
20090;SDS011;10205;49.678;6.560;2023-08-21T10:13:24;2.75;;;2.42;;
20090;SDS011;10205;49.678;6.560;2023-08-21T10:15:52;3.08;;;2.47;;
20090;SDS011;10205;49.678;6.560;2023-08-21T10:18:20;3.35;;;2.47;;
20090;SDS011;10205;49.678;6.560;2023-08-21T10:20:50;2.40;;;2.20;;
20090;SDS011;10205;49.678;6.560;2023-08-21T10:23:26;2.78;;;2.58;;
20090;SDS011;10205;49.678;6.560;2023-08-21T10:25:57;3.28;;;2.50;;
20090;SDS011;10205;49.678;6.560;2023-08-21T10:28:40;2.45;;;2.25;;
20090;SDS011;10205;49.678;6.560;2023-08-21T10:31:25;2.97;;;2.10;;
20090;SDS011;10205;49.678;6.560;2023-08-21T10:34:04;2.85;;;2.42;;
20090;SDS011;10205;49.678;6.560;2023-08-21T10:36:40;2.83;;;2.63;;
20090;SDS011;10205;49.678;6.560;2023-08-21T10:39:32;2.80;;;2.40;;
20090;SDS011;10205;49.678;6.560;2023-08-21T10:42:05;2.20;;;1.95;;
20090;SDS011;10205;49.678;6.560;2023-08-21T10:44:49;3.28;;;2.30;;
20090;SDS011;10205;49.678;6.560;2023-08-21T10:47:21;2.17;;;2.08;;
20090;SDS011;10205;49.678;6.560;2023-08-21T10:49:50;2.20;;;2.00;;
20090;SDS011;10205;49.678;6.560;2023-08-21T10:52:21;2.80;;;2.10;;
20090;SDS011;10205;49.678;6.560;2023-08-21T10:54:51;3.50;;;2.25;;
20090;SDS011;10205;49.678;6.560;2023-08-21T10:57:23;2.00;;;1.80;;
20090;SDS011;10205;49.678;6.560;2023-08-21T10:59:52;4.03;;;1.98;;
20090;SDS011;10205;49.678;6.560;2023-08-21T11:02:22;2.17;;;2.03;;
20090;SDS011;10205;49.678;6.560;2023-08-21T11:04:52;3.33;;;2.30;;
20090;SDS011;10205;49.678;6.560;2023-08-21T11:07:20;2.13;;;1.98;;
20090;SDS011;10205;49.678;6.560;2023-08-21T11:09:49;2.13;;;2.00;;
20090;SDS011;10205;49.678;6.560;2023-08-21T11:12:18;2.13;;;1.80;;
20090;SDS011;10205;49.678;6.560;2023-08-21T11:14:49;4.47;;;2.40;;
20090;SDS011;10205;49.678;6.560;2023-08-21T11:17:17;1.90;;;1.75;;
20090;SDS011;10205;49.678;6.560;2023-08-21T11:19:44;2.55;;;1.98;;
20090;SDS011;10205;49.678;6.560;2023-08-21T11:22:13;2.38;;;2.13;;
20090;SDS011;10205;49.678;6.560;2023-08-21T11:24:41;1.85;;;1.75;;
20090;SDS011;10205;49.678;6.560;2023-08-21T11:27:12;2.53;;;1.88;;
20090;SDS011;10205;49.678;6.560;2023-08-21T11:29:42;3.00;;;1.92;;
20090;SDS011;10205;49.678;6.560;2023-08-21T11:32:14;2.15;;;2.05;;
20090;SDS011;10205;49.678;6.560;2023-08-21T11:34:47;2.90;;;2.33;;
20090;SDS011;10205;49.678;6.560;2023-08-21T11:37:16;2.40;;;2.20;;
20090;SDS011;10205;49.678;6.560;2023-08-21T11:39:45;2.70;;;2.50;;
20090;SDS011;10205;49.678;6.560;2023-08-21T11:42:15;2.78;;;2.50;;
20090;SDS011;10205;49.678;6.560;2023-08-21T11:44:46;2.70;;;2.50;;
20090;SDS011;10205;49.678;6.560;2023-08-21T11:47:19;2.97;;;2.42;;
20090;SDS011;10205;49.678;6.560;2023-08-21T11:49:49;2.88;;;2.67;;
20090;SDS011;10205;49.678;6.560;2023-08-21T11:52:18;2.90;;;2.60;;
20090;SDS011;10205;49.678;6.560;2023-08-21T11:54:47;3.33;;;2.50;;
20090;SDS011;10205;49.678;6.560;2023-08-21T11:57:18;2.88;;;2.67;;
20090;SDS011;10205;49.678;6.560;2023-08-21T11:59:49;3.00;;;2.63;;
20090;SDS011;10205;49.678;6.560;2023-08-21T12:02:21;4.30;;;2.85;;
20090;SDS011;10205;49.678;6.560;2023-08-21T12:04:54;2.83;;;2.63;;
20090;SDS011;10205;49.678;6.560;2023-08-21T12:07:28;3.85;;;2.70;;
20090;SDS011;10205;49.678;6.560;2023-08-21T12:09:55;2.88;;;2.58;;
20090;SDS011;10205;49.678;6.560;2023-08-21T12:12:23;4.05;;;2.75;;
20090;SDS011;10205;49.678;6.560;2023-08-21T12:14:50;2.53;;;2.33;;
20090;SDS011;10205;49.678;6.560;2023-08-21T12:17:19;3.30;;;2.40;;
20090;SDS011;10205;49.678;6.560;2023-08-21T12:19:47;2.67;;;2.33;;
20090;SDS011;10205;49.678;6.560;2023-08-21T12:22:14;2.40;;;2.20;;
20090;SDS011;10205;49.678;6.560;2023-08-21T12:24:42;2.40;;;2.22;;
20090;SDS011;10205;49.678;6.560;2023-08-21T12:27:09;2.17;;;2.08;;
20090;SDS011;10205;49.678;6.560;2023-08-21T12:29:36;2.67;;;2.40;;
20090;SDS011;10205;49.678;6.560;2023-08-21T12:32:04;2.95;;;2.50;;
20090;SDS011;10205;49.678;6.560;2023-08-21T12:34:34;2.10;;;1.92;;
20090;SDS011;10205;49.678;6.560;2023-08-21T12:37:01;2.30;;;2.10;;
20090;SDS011;10205;49.678;6.560;2023-08-21T12:39:29;2.40;;;2.20;;
20090;SDS011;10205;49.678;6.560;2023-08-21T12:41:57;2.67;;;2.47;;
20090;SDS011;10205;49.678;6.560;2023-08-21T12:44:24;2.63;;;2.38;;
20090;SDS011;10205;49.678;6.560;2023-08-21T12:46:51;3.08;;;2.40;;
20090;SDS011;10205;49.678;6.560;2023-08-21T12:49:19;4.30;;;2.60;;
20090;SDS011;10205;49.678;6.560;2023-08-21T12:51:48;3.40;;;2.50;;
20090;SDS011;10205;49.678;6.560;2023-08-21T12:54:15;2.83;;;2.38;;
20090;SDS011;10205;49.678;6.560;2023-08-21T12:56:43;3.05;;;2.40;;
20090;SDS011;10205;49.678;6.560;2023-08-21T12:59:12;2.75;;;2.55;;
20090;SDS011;10205;49.678;6.560;2023-08-21T13:01:39;2.28;;;2.13;;
20090;SDS011;10205;49.678;6.560;2023-08-21T13:04:07;2.45;;;2.22;;
20090;SDS011;10205;49.678;6.560;2023-08-21T13:06:34;2.40;;;2.20;;
20090;SDS011;10205;49.678;6.560;2023-08-21T13:09:03;2.42;;;2.22;;
20090;SDS011;10205;49.678;6.560;2023-08-21T13:11:32;2.25;;;2.00;;
20090;SDS011;10205;49.678;6.560;2023-08-21T13:13:59;3.15;;;2.20;;
20090;SDS011;10205;49.678;6.560;2023-08-21T13:16:26;2.50;;;2.30;;
20090;SDS011;10205;49.678;6.560;2023-08-21T13:18:54;2.65;;;2.45;;
20090;SDS011;10205;49.678;6.560;2023-08-21T13:21:21;2.67;;;2.25;;
20090;SDS011;10205;49.678;6.560;2023-08-21T13:23:49;2.42;;;1.75;;
20090;SDS011;10205;49.678;6.560;2023-08-21T13:26:18;2.20;;;2.00;;
20090;SDS011;10205;49.678;6.560;2023-08-21T13:28:45;2.92;;;2.10;;
20090;SDS011;10205;49.678;6.560;2023-08-21T13:31:13;2.55;;;2.35;;
20090;SDS011;10205;49.678;6.560;2023-08-21T13:33:44;2.13;;;2.00;;
20090;SDS011;10205;49.678;6.560;2023-08-21T13:36:12;2.83;;;1.90;;
20090;SDS011;10205;49.678;6.560;2023-08-21T13:38:40;3.05;;;2.28;;
20090;SDS011;10205;49.678;6.560;2023-08-21T13:41:08;2.13;;;1.90;;
20090;SDS011;10205;49.678;6.560;2023-08-21T13:43:37;2.25;;;2.13;;
20090;SDS011;10205;49.678;6.560;2023-08-21T13:46:05;2.97;;;1.90;;
20090;SDS011;10205;49.678;6.560;2023-08-21T13:48:34;2.03;;;1.80;;
20090;SDS011;10205;49.678;6.560;2023-08-21T13:51:01;2.28;;;1.98;;
20090;SDS011;10205;49.678;6.560;2023-08-21T13:53:29;2.22;;;1.95;;
20090;SDS011;10205;49.678;6.560;2023-08-21T13:55:56;2.10;;;2.00;;
20090;SDS011;10205;49.678;6.560;2023-08-21T13:58:23;2.45;;;2.25;;
20090;SDS011;10205;49.678;6.560;2023-08-21T14:00:52;2.33;;;2.10;;
20090;SDS011;10205;49.678;6.560;2023-08-21T14:03:21;3.45;;;2.10;;
20090;SDS011;10205;49.678;6.560;2023-08-21T14:05:48;6.63;;;2.15;;
20090;SDS011;10205;49.678;6.560;2023-08-21T14:08:15;2.20;;;2.00;;
20090;SDS011;10205;49.678;6.560;2023-08-21T14:10:43;2.20;;;2.00;;
20090;SDS011;10205;49.678;6.560;2023-08-21T14:13:10;2.53;;;1.98;;
20090;SDS011;10205;49.678;6.560;2023-08-21T14:15:38;3.15;;;2.00;;
20090;SDS011;10205;49.678;6.560;2023-08-21T14:18:07;2.40;;;2.20;;
20090;SDS011;10205;49.678;6.560;2023-08-21T14:20:34;2.45;;;2.25;;
20090;SDS011;10205;49.678;6.560;2023-08-21T14:23:05;2.15;;;2.00;;
20090;SDS011;10205;49.678;6.560;2023-08-21T14:25:33;1.88;;;1.70;;
20090;SDS011;10205;49.678;6.560;2023-08-21T14:28:02;3.40;;;2.33;;
20090;SDS011;10205;49.678;6.560;2023-08-21T14:30:31;2.10;;;1.90;;
20090;SDS011;10205;49.678;6.560;2023-08-21T14:32:59;2.55;;;2.08;;
20090;SDS011;10205;49.678;6.560;2023-08-21T14:35:28;2.20;;;2.00;;
20090;SDS011;10205;49.678;6.560;2023-08-21T14:37:55;2.25;;;2.05;;
20090;SDS011;10205;49.678;6.560;2023-08-21T14:40:23;2.30;;;2.10;;
20090;SDS011;10205;49.678;6.560;2023-08-21T14:42:50;3.63;;;2.05;;
20090;SDS011;10205;49.678;6.560;2023-08-21T14:45:18;2.40;;;2.20;;
20090;SDS011;10205;49.678;6.560;2023-08-21T14:47:46;2.20;;;2.10;;
20090;SDS011;10205;49.678;6.560;2023-08-21T14:50:13;2.10;;;1.90;;
20090;SDS011;10205;49.678;6.560;2023-08-21T14:52:42;2.35;;;2.15;;
20090;SDS011;10205;49.678;6.560;2023-08-21T14:55:09;3.22;;;1.95;;
20090;SDS011;10205;49.678;6.560;2023-08-21T14:57:37;2.28;;;2.08;;